createdAt,value
2023-03-15T00:00:32.086Z,4.53
2023-03-15T00:03:04.118Z,4.23
2023-03-15T00:05:32.699Z,5.70
2023-03-15T00:08:01.012Z,4.57
2023-03-15T00:10:29.004Z,4.97
2023-03-15T00:12:56.703Z,5.03
2023-03-15T00:15:24.475Z,6.17
2023-03-15T00:17:52.534Z,3.63
2023-03-15T00:20:21.952Z,4.27
2023-03-15T00:22:50.057Z,4.77
2023-03-15T00:25:18.016Z,6.03
2023-03-15T00:27:45.777Z,4.37
2023-03-15T00:30:13.815Z,4.63
2023-03-15T00:32:41.998Z,5.57
2023-03-15T00:35:12.878Z,4.93
2023-03-15T00:37:42.355Z,6.83
2023-03-15T00:40:12.364Z,4.23
2023-03-15T00:42:40.081Z,5.73
2023-03-15T00:45:08.669Z,3.77
2023-03-15T00:47:36.702Z,3.67
2023-03-15T00:50:04.663Z,3.90
2023-03-15T00:52:36.128Z,3.73
2023-03-15T00:55:06.082Z,5.07
2023-03-15T00:57:34.560Z,4.83
2023-03-15T01:00:07.215Z,5.90
2023-03-15T01:02:34.916Z,5.73
2023-03-15T01:05:02.862Z,5.30
2023-03-15T01:07:33.700Z,3.33
2023-03-15T01:10:01.594Z,6.50
2023-03-15T01:12:32.777Z,5.57
2023-03-15T01:15:00.753Z,4.77
2023-03-15T01:17:29.305Z,5.90
2023-03-15T01:19:57.061Z,6.23
2023-03-15T01:22:24.943Z,4.77
2023-03-15T01:24:52.777Z,5.43
2023-03-15T01:27:20.590Z,5.07
2023-03-15T01:29:49.827Z,8.30
2023-03-15T01:32:17.685Z,4.53
2023-03-15T01:34:45.852Z,4.13
2023-03-15T01:37:14.700Z,5.60
2023-03-15T01:39:42.665Z,6.47
2023-03-15T01:42:10.916Z,6.17
2023-03-15T01:44:51.403Z,6.33
2023-03-15T01:47:19.323Z,6.37
2023-03-15T01:49:49.204Z,5.63
2023-03-15T01:52:18.705Z,5.90
2023-03-15T01:54:48.215Z,5.43
2023-03-15T01:57:17.982Z,7.40
2023-03-15T01:59:47.653Z,10.23
2023-03-15T02:02:16.955Z,7.00
2023-03-15T02:04:47.489Z,6.97
2023-03-15T02:07:16.683Z,6.23
2023-03-15T02:09:49.063Z,5.83
2023-03-15T02:12:16.790Z,7.30
2023-03-15T02:14:45.319Z,4.37
2023-03-15T02:17:13.423Z,5.93
2023-03-15T02:19:48.334Z,4.63
2023-03-15T02:22:20.548Z,5.40
2023-03-15T02:24:52.826Z,5.60
2023-03-15T02:27:26.844Z,5.17
2023-03-15T02:29:54.939Z,8.67
2023-03-15T02:32:22.811Z,7.20
2023-03-15T02:34:53.013Z,7.77
2023-03-15T02:37:21.706Z,8.57
2023-03-15T02:39:49.533Z,7.63
2023-03-15T02:42:17.684Z,6.07
2023-03-15T02:44:47.421Z,7.30
2023-03-15T02:47:19.052Z,6.13
2023-03-15T02:49:49.438Z,7.83
2023-03-15T02:52:17.476Z,8.87
2023-03-15T02:54:45.557Z,9.03
2023-03-15T02:57:13.826Z,9.07
2023-03-15T02:59:43.248Z,6.67
2023-03-15T03:02:13.075Z,7.57
2023-03-15T03:04:41.771Z,7.73
2023-03-15T03:07:09.723Z,7.37
2023-03-15T03:09:37.661Z,7.60
2023-03-15T03:12:05.552Z,6.10
2023-03-15T03:14:33.638Z,5.07
2023-03-15T03:17:01.843Z,7.67
2023-03-15T03:19:38.038Z,7.53
2023-03-15T03:22:05.935Z,6.47
2023-03-15T03:24:33.821Z,6.27
2023-03-15T03:27:01.749Z,4.97
2023-03-15T03:29:29.404Z,6.17
2023-03-15T03:31:57.352Z,5.67
2023-03-15T03:34:25.404Z,6.30
2023-03-15T03:36:54.881Z,6.80
2023-03-15T03:39:22.799Z,5.57
2023-03-15T03:41:50.463Z,5.27
2023-03-15T03:44:18.523Z,6.47
2023-03-15T03:46:46.390Z,5.40
2023-03-15T03:49:14.929Z,5.47
2023-03-15T03:51:42.775Z,6.57
2023-03-15T03:54:12.003Z,8.07
2023-03-15T03:56:40.117Z,6.83
2023-03-15T03:59:07.868Z,6.80
2023-03-15T04:01:35.875Z,7.97
2023-03-15T04:04:03.764Z,9.20
2023-03-15T04:06:31.724Z,9.93
2023-03-15T04:08:59.617Z,10.53
2023-03-15T04:11:29.052Z,9.23
2023-03-15T04:13:57.034Z,7.50
2023-03-15T04:16:26.088Z,11.27
2023-03-15T04:18:56.664Z,13.23
2023-03-15T04:21:24.763Z,11.37
2023-03-15T04:23:52.664Z,12.20
2023-03-15T04:26:20.465Z,10.57
2023-03-15T04:28:49.842Z,7.90
2023-03-15T04:31:17.780Z,8.63
2023-03-15T04:33:45.605Z,6.43
2023-03-15T04:36:18.531Z,10.43
2023-03-15T04:38:47.719Z,7.63
2023-03-15T04:41:15.752Z,10.00
2023-03-15T04:43:43.801Z,7.43
2023-03-15T04:46:12.934Z,7.43
2023-03-15T04:48:44.070Z,9.03
2023-03-15T04:51:11.949Z,12.73
2023-03-15T04:53:39.994Z,12.57
2023-03-15T04:56:08.264Z,7.57
2023-03-15T04:58:36.141Z,8.00
2023-03-15T05:01:03.964Z,8.07
2023-03-15T05:03:33.238Z,10.80
2023-03-15T05:06:08.354Z,8.23
2023-03-15T05:08:37.049Z,6.47
2023-03-15T05:11:05.200Z,8.00
2023-03-15T05:13:33.155Z,9.63
2023-03-15T05:16:01.093Z,8.90
2023-03-15T05:18:30.249Z,6.77
2023-03-15T05:20:59.416Z,8.27
2023-03-15T05:23:28.145Z,9.70
2023-03-15T05:25:56.672Z,8.57
2023-03-15T05:28:25.112Z,9.33
2023-03-15T05:30:53.332Z,8.77
2023-03-15T05:33:21.311Z,5.30
2023-03-15T05:35:49.278Z,7.67
2023-03-15T05:38:18.560Z,8.37
2023-03-15T05:40:47.019Z,6.80
2023-03-15T05:43:15.058Z,4.73
2023-03-15T05:45:44.957Z,4.93
2023-03-15T05:48:12.736Z,8.77
2023-03-15T05:50:40.546Z,8.23
2023-03-15T05:53:08.247Z,12.10
2023-03-15T05:55:37.586Z,11.20
2023-03-15T05:58:05.746Z,7.00
2023-03-15T06:00:33.995Z,9.50
2023-03-15T06:03:01.701Z,7.73
2023-03-15T06:05:29.488Z,9.73
2023-03-15T06:07:57.391Z,7.50
2023-03-15T06:10:25.198Z,6.87
2023-03-15T06:12:55.624Z,10.03
2023-03-15T06:15:23.315Z,6.93
2023-03-15T06:17:51.478Z,7.13
2023-03-15T06:20:19.554Z,10.33
2023-03-15T06:22:49.837Z,10.50
2023-03-15T06:25:17.688Z,9.93
2023-03-15T06:27:45.428Z,9.87
2023-03-15T06:30:17.044Z,10.17
2023-03-15T06:32:45.011Z,8.70
2023-03-15T06:35:13.257Z,10.03
2023-03-15T06:37:41.993Z,10.70
2023-03-15T06:40:11.617Z,8.03
2023-03-15T06:42:39.795Z,13.10
2023-03-15T06:45:09.778Z,11.73
2023-03-15T06:47:41.139Z,9.63
2023-03-15T06:50:09.372Z,10.77
2023-03-15T06:52:37.362Z,13.97
2023-03-15T06:55:05.619Z,8.83
2023-03-15T06:57:33.597Z,7.57
2023-03-15T07:00:01.373Z,9.53
2023-03-15T07:02:33.961Z,7.80
2023-03-15T07:05:03.063Z,9.03
2023-03-15T07:07:30.796Z,10.17
2023-03-15T07:09:58.885Z,8.20
2023-03-15T07:12:27.557Z,5.60
2023-03-15T07:14:55.399Z,5.87
2023-03-15T07:17:23.408Z,6.47
2023-03-15T07:19:56.590Z,7.33
2023-03-15T07:22:26.803Z,5.07
2023-03-15T07:24:54.881Z,8.47
2023-03-15T07:27:22.811Z,6.27
2023-03-15T07:29:50.594Z,4.97
2023-03-15T07:32:18.699Z,5.37
2023-03-15T07:34:46.598Z,7.30
2023-03-15T07:37:14.381Z,9.13
2023-03-15T07:39:43.819Z,5.50
2023-03-15T07:42:11.759Z,6.83
2023-03-15T07:44:39.415Z,7.13
2023-03-15T07:47:10.494Z,7.33
2023-03-15T07:49:38.516Z,8.60
2023-03-15T07:52:06.342Z,7.23
2023-03-15T07:54:34.569Z,6.23
2023-03-15T07:57:03.737Z,10.93
2023-03-15T07:59:32.055Z,7.03
2023-03-15T08:02:02.394Z,6.37
2023-03-15T08:04:35.648Z,6.73
2023-03-15T08:07:04.478Z,4.63
2023-03-15T08:09:34.726Z,7.77
2023-03-15T08:12:04.412Z,5.70
2023-03-15T08:14:32.674Z,5.57
2023-03-15T08:17:01.321Z,4.20
2023-03-15T08:19:29.020Z,7.23
2023-03-15T08:21:56.811Z,5.43
2023-03-15T08:24:25.130Z,7.50
2023-03-15T08:26:52.936Z,9.87
2023-03-15T08:29:22.091Z,5.47
2023-03-15T08:31:50.035Z,2.30
2023-03-15T08:34:17.922Z,4.37
2023-03-15T08:36:47.413Z,5.37
2023-03-15T08:39:15.934Z,5.33
2023-03-15T08:41:43.992Z,5.17
2023-03-15T08:44:11.684Z,7.70
2023-03-15T08:46:41.376Z,4.73
2023-03-15T08:49:09.130Z,5.70
2023-03-15T08:51:36.904Z,6.67
2023-03-15T08:54:08.584Z,6.10
2023-03-15T08:56:37.424Z,3.47
2023-03-15T08:59:05.446Z,6.80
2023-03-15T09:01:35.719Z,3.47
2023-03-15T09:04:05.323Z,4.03
2023-03-15T09:06:33.709Z,3.60
2023-03-15T09:09:01.623Z,5.37
2023-03-15T09:11:29.393Z,6.47
2023-03-15T09:13:57.363Z,7.23
2023-03-15T09:16:25.387Z,3.43
2023-03-15T09:18:53.412Z,7.30
2023-03-15T09:21:22.965Z,4.73
2023-03-15T09:23:50.734Z,4.80
2023-03-15T09:26:19.228Z,5.90
2023-03-15T09:28:47.210Z,8.10
2023-03-15T09:31:15.822Z,6.43
2023-03-15T09:33:46.758Z,4.80
2023-03-15T09:36:14.506Z,5.23
2023-03-15T09:38:44.275Z,6.27
2023-03-15T09:41:14.021Z,6.60
2023-03-15T09:43:54.290Z,4.30
2023-03-15T09:46:28.176Z,2.83
2023-03-15T09:48:58.059Z,5.27
2023-03-15T09:51:32.307Z,4.90
2023-03-15T09:54:05.734Z,4.80
2023-03-15T09:56:36.056Z,4.00
2023-03-15T09:59:03.823Z,6.50
2023-03-15T10:01:33.158Z,14.80
2023-03-15T10:04:04.551Z,7.47
2023-03-15T10:06:36.469Z,5.67
2023-03-15T10:09:12.251Z,4.73
2023-03-15T10:11:43.938Z,4.70
2023-03-15T10:14:16.616Z,5.37
2023-03-15T10:16:46.473Z,6.40
2023-03-15T10:19:19.601Z,4.97
2023-03-15T10:21:53.956Z,3.30
2023-03-15T10:24:26.924Z,5.70
2023-03-15T10:26:55.041Z,3.27
2023-03-15T10:29:24.451Z,3.57
2023-03-15T10:31:53.307Z,7.27
2023-03-15T10:34:22.209Z,5.07
2023-03-15T10:36:54.517Z,3.67
2023-03-15T10:39:27.376Z,3.87
2023-03-15T10:41:55.233Z,2.97
2023-03-15T10:44:24.721Z,4.27
2023-03-15T10:47:07.086Z,3.67
2023-03-15T10:49:41.700Z,5.33
2023-03-15T10:52:24.574Z,5.37
2023-03-15T10:54:58.747Z,4.70
2023-03-15T10:57:35.763Z,3.90
2023-03-15T11:00:09.872Z,4.80
2023-03-15T11:02:37.871Z,3.87
2023-03-15T11:05:16.119Z,4.93
2023-03-15T11:07:54.821Z,4.07
2023-03-15T11:10:26.063Z,3.70
2023-03-15T11:13:09.846Z,5.10
2023-03-15T11:15:37.925Z,7.53
2023-03-15T11:18:07.530Z,3.73
2023-03-15T11:20:37.989Z,3.80
2023-03-15T11:23:15.088Z,4.57
2023-03-15T11:25:44.109Z,4.03
2023-03-15T11:28:17.205Z,2.93
2023-03-15T11:30:48.347Z,3.97
2023-03-15T11:33:23.449Z,3.00
2023-03-15T11:35:53.058Z,5.40
2023-03-15T11:38:33.584Z,3.60
2023-03-15T11:41:04.139Z,4.03
2023-03-15T11:43:36.907Z,5.83
2023-03-15T11:46:06.646Z,7.23
2023-03-15T11:48:41.222Z,6.50
2023-03-15T11:51:09.527Z,5.30
2023-03-15T11:53:39.910Z,5.30
2023-03-15T11:56:23.149Z,4.73
2023-03-15T11:59:04.255Z,5.73
2023-03-15T12:01:32.174Z,3.80
2023-03-15T12:04:23.932Z,7.47
2023-03-15T12:06:53.665Z,5.37
2023-03-15T12:09:40.981Z,4.80
2023-03-15T12:12:24.121Z,3.40
2023-03-15T12:15:03.001Z,7.97
2023-03-15T12:17:40.166Z,4.70
2023-03-15T12:20:10.147Z,5.93
2023-03-15T12:22:39.120Z,6.13
2023-03-15T12:25:12.869Z,9.00
2023-03-15T12:27:42.894Z,6.80
2023-03-15T12:30:20.082Z,5.27
2023-03-15T12:32:51.078Z,7.97
2023-03-15T12:35:20.655Z,6.03
2023-03-15T12:37:49.812Z,5.90
2023-03-15T12:40:39.656Z,8.53
2023-03-15T12:43:07.318Z,5.50
2023-03-15T12:45:40.923Z,6.80
2023-03-15T12:48:27.318Z,5.20
2023-03-15T12:50:56.772Z,8.67
2023-03-15T12:53:28.572Z,4.17
2023-03-15T12:56:08.105Z,4.63
2023-03-15T12:58:37.463Z,10.23
2023-03-15T13:01:08.699Z,4.73
2023-03-15T13:03:37.105Z,7.23
2023-03-15T13:06:10.569Z,5.87
2023-03-15T13:08:42.559Z,7.23
2023-03-15T13:11:17.659Z,10.97
2023-03-15T13:14:03.681Z,5.00
2023-03-15T13:16:36.740Z,6.23
2023-03-15T13:19:11.701Z,9.33
2023-03-15T13:21:43.124Z,5.80
2023-03-15T13:24:14.067Z,4.07
2023-03-15T13:26:49.018Z,7.07
2023-03-15T13:29:17.824Z,4.30
2023-03-15T13:31:47.596Z,5.73
2023-03-15T13:34:16.937Z,5.47
2023-03-15T13:36:47.512Z,6.30
2023-03-15T13:39:21.288Z,7.00
2023-03-15T13:41:49.419Z,9.00
2023-03-15T13:44:18.458Z,10.70
2023-03-15T13:46:47.837Z,8.23
2023-03-15T13:49:15.730Z,9.37
2023-03-15T13:51:44.139Z,9.27
2023-03-15T13:54:14.688Z,10.47
2023-03-15T13:56:49.504Z,7.80
2023-03-15T13:59:17.978Z,9.97
2023-03-15T14:01:47.539Z,8.40
2023-03-15T14:04:19.617Z,10.10
2023-03-15T14:06:48.216Z,10.77
2023-03-15T14:09:19.459Z,10.80
2023-03-15T14:11:47.156Z,8.90
2023-03-15T14:14:20.778Z,12.17
2023-03-15T14:17:04.307Z,9.30
2023-03-15T14:19:34.678Z,11.87
2023-03-15T14:22:03.513Z,8.63
2023-03-15T14:24:32.223Z,7.10
2023-03-15T14:27:01.487Z,11.30
2023-03-15T14:29:30.919Z,8.53
2023-03-15T14:32:02.644Z,7.67
2023-03-15T14:34:34.891Z,9.30
2023-03-15T14:37:06.006Z,11.67
2023-03-15T14:39:39.506Z,8.23
2023-03-15T14:42:07.683Z,8.27
2023-03-15T14:44:35.309Z,7.27
2023-03-15T14:47:08.195Z,5.47
2023-03-15T14:49:36.109Z,11.90
2023-03-15T14:52:05.207Z,7.37
2023-03-15T14:54:33.826Z,12.73
2023-03-15T14:57:01.690Z,9.80
2023-03-15T14:59:29.430Z,7.63
2023-03-15T15:01:59.097Z,7.60
2023-03-15T15:04:31.273Z,9.27
2023-03-15T15:06:58.945Z,10.07
2023-03-15T15:09:29.482Z,5.10
2023-03-15T15:11:57.333Z,6.73
2023-03-15T15:14:25.030Z,10.23
2023-03-15T15:16:53.429Z,6.57
2023-03-15T15:19:21.841Z,8.17
2023-03-15T15:21:51.392Z,10.10
2023-03-15T15:24:20.890Z,6.47
2023-03-15T15:26:48.841Z,6.60
2023-03-15T15:29:17.520Z,8.97
2023-03-15T15:31:45.990Z,7.07
2023-03-15T15:34:14.422Z,5.13
2023-03-15T15:36:43.511Z,5.93
2023-03-15T15:39:21.629Z,7.90
2023-03-15T15:41:49.315Z,13.00
2023-03-15T15:44:17.959Z,13.80
2023-03-15T15:46:45.767Z,11.70
2023-03-15T15:49:13.806Z,13.80
2023-03-15T15:51:45.721Z,10.07
2023-03-15T15:54:18.493Z,10.47
2023-03-15T15:56:49.310Z,12.97
2023-03-15T15:59:18.149Z,8.37
2023-03-15T16:01:59.532Z,7.27
2023-03-15T16:04:28.517Z,8.63
2023-03-15T16:06:57.187Z,11.83
2023-03-15T16:09:26.600Z,12.03
2023-03-15T16:11:56.267Z,10.80
2023-03-15T16:14:24.077Z,10.90
2023-03-15T16:16:52.225Z,14.80
2023-03-15T16:19:20.376Z,14.00
2023-03-15T16:21:55.939Z,11.33
2023-03-15T16:24:26.545Z,16.37
2023-03-15T16:26:59.888Z,22.50
2023-03-15T16:29:31.380Z,10.63
2023-03-15T16:32:13.844Z,8.00
2023-03-15T16:34:45.617Z,9.50
2023-03-15T16:37:15.187Z,10.40
2023-03-15T16:39:47.951Z,15.40
2023-03-15T16:42:18.297Z,7.43
2023-03-15T16:44:47.088Z,5.93
2023-03-15T16:47:15.550Z,7.03
2023-03-15T16:49:43.679Z,12.53
2023-03-15T16:52:12.702Z,8.97
2023-03-15T16:54:41.945Z,5.90
2023-03-15T16:57:12.761Z,7.03
2023-03-15T16:59:42.512Z,6.10
2023-03-15T17:02:16.533Z,6.70
2023-03-15T17:04:44.803Z,7.37
2023-03-15T17:07:15.388Z,4.47
2023-03-15T17:09:51.006Z,6.93
2023-03-15T17:12:22.083Z,6.33
2023-03-15T17:14:51.961Z,4.87
2023-03-15T17:17:20.419Z,6.33
2023-03-15T17:19:48.802Z,7.07
2023-03-15T17:22:18.581Z,4.10
2023-03-15T17:24:49.757Z,3.53
2023-03-15T17:27:22.390Z,7.60
2023-03-15T17:29:52.187Z,9.40
2023-03-15T17:32:20.263Z,4.80
2023-03-15T17:34:48.676Z,5.13
2023-03-15T17:37:18.705Z,4.93
2023-03-15T17:39:47.843Z,5.23
2023-03-15T17:42:16.796Z,6.37
2023-03-15T17:44:45.056Z,5.80
2023-03-15T17:47:14.448Z,5.03
2023-03-15T17:49:42.467Z,7.00
2023-03-15T17:52:14.346Z,6.60
2023-03-15T17:54:42.227Z,8.67
2023-03-15T17:57:11.713Z,7.90
2023-03-15T17:59:39.806Z,6.70
2023-03-15T18:02:10.086Z,5.63
2023-03-15T18:04:39.446Z,7.50
2023-03-15T18:07:07.235Z,5.73
2023-03-15T18:09:35.580Z,7.80
2023-03-15T18:12:03.636Z,6.73
2023-03-15T18:14:31.585Z,6.33
2023-03-15T18:16:59.543Z,9.17
2023-03-15T18:19:27.524Z,6.53
2023-03-15T18:21:56.561Z,6.87
2023-03-15T18:24:24.374Z,10.17
2023-03-15T18:26:52.941Z,13.77
2023-03-15T18:29:21.032Z,12.73
2023-03-15T18:31:48.731Z,11.00
2023-03-15T18:34:17.388Z,12.63
2023-03-15T18:36:45.767Z,14.10
2023-03-15T18:39:15.331Z,13.67
2023-03-15T18:41:43.106Z,16.90
2023-03-15T18:44:11.117Z,10.97
2023-03-15T18:46:39.112Z,14.90
2023-03-15T18:49:06.793Z,12.80
2023-03-15T18:51:34.537Z,13.20
2023-03-15T18:54:02.373Z,15.80
2023-03-15T18:56:34.331Z,8.60
2023-03-15T18:59:02.700Z,9.33
2023-03-15T19:01:30.592Z,8.03
2023-03-15T19:03:58.367Z,6.37
2023-03-15T19:06:26.910Z,6.50
2023-03-15T19:08:55.021Z,6.90
2023-03-15T19:11:25.177Z,5.70
2023-03-15T19:13:54.671Z,9.63
2023-03-15T19:16:22.691Z,6.90
2023-03-15T19:18:51.666Z,6.20
2023-03-15T19:21:20.294Z,10.67
2023-03-15T19:23:48.788Z,4.73
2023-03-15T19:26:16.595Z,8.87
2023-03-15T19:28:44.389Z,5.23
2023-03-15T19:31:13.935Z,6.67
2023-03-15T19:33:41.993Z,10.30
2023-03-15T19:36:10.327Z,7.37
2023-03-15T19:38:38.321Z,10.10
2023-03-15T19:41:06.878Z,13.13
2023-03-15T19:43:34.808Z,11.23
2023-03-15T19:46:04.539Z,11.70
2023-03-15T19:48:34.081Z,10.27
2023-03-15T19:51:01.915Z,10.67
2023-03-15T19:53:31.094Z,11.57
2023-03-15T19:55:59.072Z,13.40
2023-03-15T19:58:26.872Z,8.83
2023-03-15T20:00:57.224Z,9.13
2023-03-15T20:03:25.094Z,8.40
2023-03-15T20:05:54.464Z,7.53
2023-03-15T20:08:26.321Z,9.03
2023-03-15T20:11:00.333Z,8.57
2023-03-15T20:13:28.070Z,8.40
2023-03-15T20:15:56.286Z,9.77
2023-03-15T20:18:24.445Z,10.07
2023-03-15T20:20:52.523Z,11.97
2023-03-15T20:23:21.945Z,11.77
2023-03-15T20:25:50.377Z,9.10
2023-03-15T20:28:20.316Z,7.97
2023-03-15T20:30:48.111Z,9.53
2023-03-15T20:33:16.450Z,10.10
2023-03-15T20:35:44.311Z,12.27
2023-03-15T20:38:13.410Z,11.50
2023-03-15T20:40:42.849Z,9.10
2023-03-15T20:43:12.148Z,8.93
2023-03-15T20:45:40.444Z,10.50
2023-03-15T20:48:08.320Z,11.43
2023-03-15T20:50:36.063Z,8.20
2023-03-15T20:53:05.221Z,9.73
2023-03-15T20:55:33.260Z,12.73
2023-03-15T20:58:02.649Z,10.87
2023-03-15T21:00:30.754Z,9.00
2023-03-15T21:02:58.760Z,11.23
2023-03-15T21:05:28.051Z,9.80
2023-03-15T21:07:56.114Z,10.83
2023-03-15T21:10:24.419Z,7.70
2023-03-15T21:12:52.295Z,5.37
2023-03-15T21:15:21.539Z,4.87
2023-03-15T21:17:50.028Z,3.93
2023-03-15T21:20:19.038Z,3.00
2023-03-15T21:22:48.484Z,2.40
2023-03-15T21:25:18.795Z,2.70
2023-03-15T21:27:46.993Z,2.30
2023-03-15T21:30:15.402Z,2.80
2023-03-15T21:32:44.911Z,2.40
2023-03-15T21:35:13.029Z,2.03
2023-03-15T21:37:41.557Z,2.27
2023-03-15T21:40:10.248Z,2.13
2023-03-15T21:42:37.936Z,1.77
2023-03-15T21:45:07.389Z,1.80
2023-03-15T21:47:36.999Z,2.20
2023-03-15T21:50:06.695Z,1.93
2023-03-15T21:52:34.504Z,2.10
2023-03-15T21:55:03.058Z,2.27
2023-03-15T21:57:33.929Z,1.73
2023-03-15T22:00:01.757Z,2.10
2023-03-15T22:02:30.165Z,2.23
2023-03-15T22:04:57.945Z,1.90
2023-03-15T22:07:27.745Z,2.20
2023-03-15T22:09:55.481Z,1.77
2023-03-15T22:12:25.393Z,2.13
2023-03-15T22:15:04.719Z,1.63
2023-03-15T22:17:34.152Z,1.13
2023-03-15T22:20:02.400Z,1.80
2023-03-15T22:22:31.708Z,1.10
2023-03-15T22:24:59.509Z,0.70
2023-03-15T22:27:27.285Z,1.10
2023-03-15T22:29:55.013Z,0.50
2023-03-15T22:32:22.943Z,1.13
2023-03-15T22:34:51.648Z,0.70
2023-03-15T22:37:19.370Z,1.03
2023-03-15T22:39:48.536Z,0.90
2023-03-15T22:42:16.520Z,0.87
2023-03-15T22:44:44.729Z,0.73
2023-03-15T22:47:12.546Z,0.80
2023-03-15T22:49:40.390Z,0.80
2023-03-15T22:52:08.623Z,0.80
2023-03-15T22:54:36.368Z,0.70
2023-03-15T22:57:06.099Z,0.63
2023-03-15T22:59:34.246Z,0.67
2023-03-15T23:02:01.979Z,0.57
2023-03-15T23:04:30.242Z,0.77
2023-03-15T23:06:58.429Z,0.80
2023-03-15T23:09:26.315Z,0.67
2023-03-15T23:11:54.114Z,0.50
2023-03-15T23:14:23.522Z,0.80
2023-03-15T23:16:52.488Z,0.73
2023-03-15T23:19:20.312Z,0.67
2023-03-15T23:21:49.390Z,0.63
2023-03-15T23:24:19.130Z,0.43
2023-03-15T23:26:46.988Z,0.70
2023-03-15T23:29:14.759Z,0.70
2023-03-15T23:31:44.364Z,0.53
2023-03-15T23:34:12.420Z,0.40
2023-03-15T23:36:43.482Z,0.53
2023-03-15T23:39:13.316Z,0.70
2023-03-15T23:41:41.254Z,0.70
2023-03-15T23:44:09.332Z,0.80
2023-03-15T23:46:38.692Z,0.50
2023-03-15T23:49:07.875Z,0.40
2023-03-15T23:51:36.088Z,0.57
2023-03-15T23:54:03.793Z,0.60
2023-03-15T23:56:32.017Z,0.60
2023-03-15T23:58:59.821Z,0.80
